Time;durP1;ratioP1;P1;durP2;ratioP2;P2;SDS_P1;SDS_P2;PMS_P1;PMS_P2;Temp;Humidity;BMP_temperature;BMP_pressure;BME280_temperature;BME280_humidity;BME280_pressure;Samples;Min_cycle;Max_cycle;Signal;HPM_P1;HPM_P2
2021/11/20 00:07:06;;;;;;;24.88;14.55;;;9.30;99.90;;;;;;4915826;29;20072;-82
2021/11/20 02:33:47;;;;;;;22.23;13.53;;;8.70;99.90;;;;;;4957365;29;20026;-82
2021/11/20 07:59:08;;;;;;;15.23;8.82;;;14.50;99.90;;;;;;4895946;29;21240;-84
2021/11/20 08:42:02;;;;;;;28.65;16.75;;;13.90;99.90;;;;;;4894812;28;20062;-85
2021/11/20 16:45:39;;;;;;;;;;;;;;;;;;;;;
2021/11/20 19:04:54;;;;;;;;;;;;;;;;;;;;;
2021/11/20 20:18:42;;;;;;;;;;;;;;;;;;;;;
2021/11/20 22:34:59;;;;;;;132.70;61.85;;;9.30;99.90;;;;;;4936531;22;20095;-73
2021/11/20 22:37:26;;;;;;;137.80;63.45;;;9.30;99.90;;;;;;4995592;28;20053;-73
2021/11/20 22:39:52;;;;;;;140.82;66.40;;;9.30;99.90;;;;;;4996122;28;20093;-73
2021/11/20 22:42:19;;;;;;;138.18;62.13;;;9.30;99.90;;;;;;4995675;28;20495;-73
2021/11/20 22:44:44;;;;;;;130.35;59.53;;;9.30;99.90;;;;;;4995817;28;20101;-73
2021/11/20 22:47:11;;;;;;;131.70;60.90;;;9.30;99.90;;;;;;4995946;28;20034;-73
2021/11/20 22:49:37;;;;;;;127.57;60.72;;;9.20;99.90;;;;;;4995994;28;20030;-74
2021/11/20 22:52:04;;;;;;;132.40;61.50;;;9.20;99.90;;;;;;4995820;28;20039;-73
2021/11/20 22:54:30;;;;;;;135.30;59.60;;;9.10;99.90;;;;;;4995886;28;20034;-74
2021/11/20 22:56:56;;;;;;;137.65;62.95;;;9.10;99.90;;;;;;4995687;28;20038;-74
2021/11/20 22:59:22;;;;;;;134.63;59.75;;;9.10;99.90;;;;;;4995797;28;20030;-74
2021/11/20 23:01:48;;;;;;;130.68;60.80;;;9.10;99.90;;;;;;4995614;28;20053;-73
2021/11/20 23:04:14;;;;;;;133.73;58.25;;;9.10;99.90;;;;;;4995037;28;20070;-73
2021/11/20 23:06:40;;;;;;;127.72;59.10;;;9.10;99.90;;;;;;4995380;28;20033;-73
2021/11/20 23:09:06;;;;;;;130.07;57.75;;;9.10;99.90;;;;;;4995576;28;20030;-73
2021/11/20 23:11:32;;;;;;;129.95;58.00;;;9.00;99.90;;;;;;4995629;28;20045;-73
2021/11/20 23:13:58;;;;;;;137.68;57.15;;;9.00;99.90;;;;;;4995536;28;20109;-73
2021/11/20 23:16:24;;;;;;;137.02;59.70;;;8.90;99.90;;;;;;4995328;28;20574;-73
2021/11/20 23:18:50;;;;;;;123.95;55.88;;;8.90;99.90;;;;;;4995084;28;20037;-73
2021/11/20 23:21:18;;;;;;;130.50;56.83;;;8.90;99.90;;;;;;4994988;28;20066;-73
2021/11/20 23:23:44;;;;;;;128.10;57.28;;;8.80;99.90;;;;;;4977977;28;20034;-73
2021/11/20 23:26:10;;;;;;;141.10;57.60;;;8.80;99.90;;;;;;4995120;28;20106;-73
2021/11/20 23:28:38;;;;;;;119.72;55.97;;;8.80;99.90;;;;;;4995458;28;20113;-73
2021/11/20 23:31:07;;;;;;;131.00;54.33;;;8.80;99.90;;;;;;4995001;28;20102;-73
2021/11/20 23:33:34;;;;;;;107.30;51.50;;;8.80;99.90;;;;;;4995266;28;20396;-73
2021/11/20 23:36:02;;;;;;;113.88;52.88;;;8.80;99.90;;;;;;4977445;28;20117;-74
2021/11/20 23:38:29;;;;;;;114.03;53.88;;;8.80;99.90;;;;;;4995059;28;20026;-73
2021/11/20 23:40:56;;;;;;;122.32;51.22;;;8.80;99.90;;;;;;4994193;28;20125;-73
2021/11/20 23:43:22;;;;;;;113.28;50.88;;;8.80;99.90;;;;;;4994530;28;20041;-73
2021/11/20 23:45:48;;;;;;;124.63;54.38;;;8.70;99.90;;;;;;4995157;28;20022;-73
2021/11/20 23:48:14;;;;;;;119.80;51.78;;;8.70;99.90;;;;;;4995023;28;20041;-73
2021/11/20 23:50:40;;;;;;;132.52;53.60;;;8.70;99.90;;;;;;4994871;28;20100;-73
2021/11/20 23:53:07;;;;;;;135.48;55.35;;;8.70;99.90;;;;;;4994639;28;20034;-73
2021/11/20 23:55:33;;;;;;;121.80;51.42;;;8.70;99.90;;;;;;4994459;28;20395;-73
2021/11/20 23:57:59;;;;;;;127.32;52.55;;;8.70;99.90;;;;;;4994719;28;20035;-73
